createdAt,value
2018-11-04T00:04:46.548Z,12.70
2018-11-04T00:07:23.049Z,12.72
2018-11-04T00:09:59.966Z,12.72
2018-11-04T00:12:35.628Z,12.74
2018-11-04T00:15:13.228Z,12.74
2018-11-04T00:17:42.836Z,12.76
2018-11-04T00:23:08.594Z,12.80
2018-11-04T00:25:38.647Z,12.81
2018-11-04T00:28:24.598Z,12.83
2018-11-04T00:31:06.349Z,12.84
2018-11-04T00:33:35.801Z,12.85
2018-11-04T00:36:15.468Z,12.85
2018-11-04T00:38:46.186Z,12.87
2018-11-04T00:47:22.115Z,12.92
2018-11-04T00:49:55.622Z,12.94
2018-11-04T00:52:24.910Z,12.94
2018-11-04T00:55:07.002Z,12.94
2018-11-04T00:57:37.723Z,12.94
2018-11-04T01:00:11.606Z,12.94
2018-11-04T01:02:54.188Z,12.95
2018-11-04T01:05:36.140Z,12.95
2018-11-04T01:08:06.164Z,12.96
2018-11-04T01:10:53.304Z,12.99
2018-11-04T01:13:44.271Z,13.02
2018-11-04T01:16:18.067Z,13.04
2018-11-04T01:18:52.563Z,13.06
2018-11-04T01:21:22.819Z,13.08
2018-11-04T01:26:45.231Z,13.10
2018-11-04T01:29:16.975Z,13.13
2018-11-04T01:32:03.289Z,13.15
2018-11-04T01:34:32.789Z,13.15
2018-11-04T01:37:15.389Z,13.14
2018-11-04T01:39:49.519Z,13.15
2018-11-04T01:42:19.983Z,13.13
2018-11-04T01:45:04.907Z,13.14
2018-11-04T01:47:35.449Z,13.13
2018-11-04T01:50:12.658Z,13.16
2018-11-04T01:52:45.474Z,13.17
2018-11-04T01:55:25.236Z,13.18
2018-11-04T01:58:09.117Z,13.17
2018-11-04T02:00:49.766Z,13.17
2018-11-04T02:03:21.366Z,13.22
2018-11-04T02:06:14.163Z,13.21
2018-11-04T02:08:46.809Z,13.21
2018-11-04T02:11:25.525Z,13.23
2018-11-04T02:13:57.900Z,13.20
2018-11-04T02:16:30.828Z,13.21
2018-11-04T02:19:13.607Z,13.22
2018-11-04T02:21:47.349Z,13.23
2018-11-04T02:24:28.253Z,13.25
2018-11-04T02:27:08.732Z,13.28
2018-11-04T02:29:46.326Z,13.28
2018-11-04T02:32:15.850Z,13.29
2018-11-04T02:34:47.448Z,13.29
2018-11-04T02:37:16.873Z,13.30
2018-11-04T02:39:54.275Z,13.30
2018-11-04T02:42:23.779Z,13.30
2018-11-04T02:45:06.654Z,13.29
2018-11-04T02:47:43.534Z,13.28
2018-11-04T02:50:14.519Z,13.29
2018-11-04T02:55:51.192Z,13.28
2018-11-04T02:58:43.783Z,13.28
2018-11-04T03:01:13.230Z,13.26
2018-11-04T03:03:52.090Z,13.25
2018-11-04T03:06:22.237Z,13.25
2018-11-04T03:08:52.253Z,13.23
2018-11-04T03:11:26.931Z,13.22
2018-11-04T03:13:56.270Z,13.23
2018-11-04T03:16:33.442Z,13.22
2018-11-04T03:19:09.528Z,13.21
2018-11-04T03:21:42.488Z,13.20
2018-11-04T03:24:11.936Z,13.20
2018-11-04T03:26:48.139Z,13.18
2018-11-04T03:29:31.508Z,13.18
2018-11-04T03:32:01.179Z,13.16
2018-11-04T03:34:30.970Z,13.16
2018-11-04T03:43:01.601Z,13.21
2018-11-04T03:45:54.672Z,13.19
2018-11-04T03:48:40.175Z,13.21
2018-11-04T03:51:16.745Z,13.19
2018-11-04T03:57:00.272Z,13.22
2018-11-04T04:02:24.853Z,13.23
2018-11-04T04:05:06.902Z,13.26
2018-11-04T04:07:36.431Z,13.18
2018-11-04T04:10:25.683Z,13.19
2018-11-04T04:12:57.283Z,13.19
2018-11-04T04:15:48.653Z,13.16
2018-11-04T04:18:23.138Z,13.16
2018-11-04T04:20:58.966Z,13.18
2018-11-04T04:23:40.574Z,13.18
2018-11-04T04:26:13.859Z,13.17
2018-11-04T04:28:46.493Z,13.17
2018-11-04T04:31:23.461Z,13.16
2018-11-04T04:33:54.105Z,13.16
2018-11-04T04:36:25.057Z,13.16
2018-11-04T04:38:54.818Z,13.14
2018-11-04T04:41:30.008Z,13.13
2018-11-04T04:43:59.523Z,13.10
2018-11-04T04:46:30.185Z,13.10
2018-11-04T04:49:01.865Z,13.09
2018-11-04T04:51:42.554Z,13.10
2018-11-04T04:54:14.339Z,13.10
2018-11-04T04:56:51.698Z,13.11
2018-11-04T04:59:26.418Z,13.11
2018-11-04T05:01:56.251Z,13.12
2018-11-04T05:04:32.737Z,13.11
2018-11-04T05:07:08.634Z,13.11
2018-11-04T05:09:41.500Z,13.12
2018-11-04T05:12:16.427Z,13.12
2018-11-04T05:14:49.384Z,13.11
2018-11-04T05:17:32.887Z,13.12
2018-11-04T05:20:02.297Z,13.13
2018-11-04T05:22:31.829Z,13.14
2018-11-04T05:25:02.545Z,13.14
2018-11-04T05:27:48.916Z,13.12
2018-11-04T05:30:25.436Z,13.14
2018-11-04T05:32:54.799Z,13.13
2018-11-04T05:35:27.758Z,13.12
2018-11-04T05:38:01.361Z,13.15
2018-11-04T05:43:32.570Z,13.12
2018-11-04T05:46:03.219Z,13.16
2018-11-04T05:48:50.819Z,13.16
2018-11-04T05:51:33.620Z,13.15
2018-11-04T05:54:03.390Z,13.14
2018-11-04T05:56:33.479Z,13.14
2018-11-04T06:02:11.263Z,13.16
2018-11-04T06:04:52.889Z,13.18
2018-11-04T06:07:33.221Z,13.19
2018-11-04T06:10:11.919Z,13.18
2018-11-04T06:13:05.220Z,13.19
2018-11-04T06:15:48.260Z,13.22
2018-11-04T06:18:22.800Z,13.24
2018-11-04T06:21:12.739Z,13.26
2018-11-04T06:23:53.540Z,13.29
2018-11-04T06:26:30.239Z,13.30
2018-11-04T06:31:54.500Z,13.31
2018-11-04T06:34:40.519Z,13.33
2018-11-04T06:37:22.020Z,13.32
2018-11-04T06:39:52.404Z,13.34
2018-11-04T06:42:23.239Z,13.38
2018-11-04T06:44:52.607Z,13.38
2018-11-04T06:47:24.357Z,13.42
2018-11-04T06:49:57.519Z,13.46
2018-11-04T06:52:38.353Z,13.49
2018-11-04T06:55:26.064Z,13.53
2018-11-04T06:57:55.643Z,13.59
2018-11-04T07:00:30.720Z,13.63
2018-11-04T07:03:00.259Z,13.68
2018-11-04T07:05:34.179Z,13.74
2018-11-04T07:08:21.621Z,13.80
2018-11-04T07:10:58.180Z,13.94
2018-11-04T07:13:40.960Z,14.09
2018-11-04T07:16:11.601Z,14.25
2018-11-04T07:18:41.200Z,14.38
2018-11-04T07:21:10.828Z,14.44
2018-11-04T07:30:06.820Z,14.70
2018-11-04T07:32:53.280Z,14.76
2018-11-04T07:35:35.463Z,14.85
2018-11-04T07:38:26.339Z,14.95
2018-11-04T07:46:54.939Z,15.01
2018-11-04T07:49:30.342Z,15.05
2018-11-04T07:54:53.200Z,15.10
2018-11-04T07:57:23.342Z,15.14
2018-11-04T08:00:04.880Z,15.18
2018-11-04T08:02:46.547Z,15.23
2018-11-04T08:05:23.903Z,15.23
2018-11-04T08:07:54.008Z,15.17
2018-11-04T08:10:35.139Z,15.22
2018-11-04T08:13:14.960Z,15.37
2018-11-04T08:15:48.256Z,15.50
2018-11-04T08:27:17.322Z,15.49
2018-11-04T08:32:49.159Z,15.47
2018-11-04T08:35:42.659Z,15.60
2018-11-04T08:38:12.280Z,15.74
2018-11-04T08:40:45.529Z,15.79
2018-11-04T08:43:28.687Z,15.78
2018-11-04T08:46:10.009Z,15.83
2018-11-04T08:48:39.620Z,15.98
2018-11-04T08:51:09.199Z,16.12
2018-11-04T08:53:39.442Z,16.18
2018-11-04T08:56:10.186Z,16.32
2018-11-04T08:58:43.000Z,16.50
2018-11-04T09:01:13.386Z,16.62
2018-11-04T09:03:44.080Z,16.73
2018-11-04T09:06:14.604Z,16.78
2018-11-04T09:08:44.881Z,16.73
2018-11-04T09:11:16.419Z,16.51
2018-11-04T09:13:46.181Z,16.40
2018-11-04T09:16:15.644Z,16.40
2018-11-04T09:18:46.460Z,16.53
2018-11-04T09:21:22.299Z,16.68
2018-11-04T09:23:51.941Z,16.79
2018-11-04T09:26:22.259Z,16.82
2018-11-04T09:28:53.220Z,16.92
2018-11-04T09:31:22.639Z,16.97
2018-11-04T09:33:52.188Z,17.09
2018-11-04T09:36:21.773Z,17.17
2018-11-04T09:38:51.099Z,17.33
2018-11-04T09:41:20.500Z,17.32
2018-11-04T09:43:50.169Z,17.20
2018-11-04T09:46:19.640Z,17.13
2018-11-04T09:48:49.060Z,16.93
2018-11-04T09:51:18.487Z,16.84
2018-11-04T09:53:48.040Z,16.65
2018-11-04T09:56:17.408Z,16.48
2018-11-04T09:58:46.841Z,16.45
2018-11-04T10:01:16.340Z,16.38
2018-11-04T10:03:46.021Z,16.32
2018-11-04T10:06:15.859Z,16.24
2018-11-04T10:08:45.543Z,16.43
2018-11-04T10:11:15.379Z,16.59
2018-11-04T10:13:44.999Z,16.74
2018-11-04T10:16:14.611Z,16.80
2018-11-04T10:18:44.272Z,16.97
2018-11-04T10:21:14.180Z,17.23
2018-11-04T10:23:43.799Z,17.33
2018-11-04T10:26:13.240Z,17.38
2018-11-04T10:28:43.520Z,17.54
2018-11-04T10:31:14.060Z,17.57
2018-11-04T10:33:43.747Z,17.54
2018-11-04T10:36:13.549Z,17.43
2018-11-04T10:38:43.099Z,17.31
2018-11-04T10:41:12.719Z,17.15
2018-11-04T10:43:42.495Z,17.06
2018-11-04T10:46:12.267Z,16.97
2018-11-04T10:48:41.938Z,16.96
2018-11-04T10:51:11.619Z,16.92
2018-11-04T10:53:41.386Z,17.09
2018-11-04T10:56:11.061Z,17.20
2018-11-04T10:58:40.461Z,17.39
2018-11-04T11:01:11.525Z,17.53
2018-11-04T11:03:41.504Z,17.78
2018-11-04T11:06:10.962Z,18.02
2018-11-04T11:08:40.479Z,18.40
2018-11-04T11:11:10.007Z,18.68
2018-11-04T11:13:39.480Z,18.89
2018-11-04T11:16:09.699Z,19.08
2018-11-04T11:18:39.179Z,19.22
2018-11-04T11:21:08.600Z,18.91
2018-11-04T11:23:38.021Z,18.86
2018-11-04T11:26:07.644Z,18.71
2018-11-04T11:28:37.119Z,18.74
2018-11-04T11:31:06.527Z,18.62
2018-11-04T11:33:36.027Z,18.81
2018-11-04T11:36:05.883Z,18.71
2018-11-04T11:38:35.262Z,18.56
2018-11-04T11:41:04.703Z,18.61
2018-11-04T11:43:34.147Z,18.60
2018-11-04T11:46:03.502Z,18.76
2018-11-04T11:48:33.041Z,18.88
2018-11-04T11:51:02.460Z,18.84
2018-11-04T11:53:31.943Z,18.67
2018-11-04T11:56:01.180Z,18.55
2018-11-04T11:58:30.553Z,18.37
2018-11-04T12:00:59.900Z,18.27
2018-11-04T12:03:29.340Z,18.28
2018-11-04T12:05:58.686Z,18.32
2018-11-04T12:08:28.080Z,18.21
2018-11-04T12:10:57.467Z,18.07
2018-11-04T12:13:26.963Z,18.08
2018-11-04T12:15:56.341Z,18.00
2018-11-04T12:18:25.799Z,17.97
2018-11-04T12:20:55.108Z,17.90
2018-11-04T12:23:24.704Z,17.94
2018-11-04T12:25:54.209Z,17.95
2018-11-04T12:28:23.646Z,17.73
2018-11-04T12:30:53.126Z,17.68
2018-11-04T12:33:22.639Z,17.63
2018-11-04T12:35:52.101Z,17.69
2018-11-04T12:38:21.559Z,17.58
2018-11-04T12:40:51.080Z,17.48
2018-11-04T12:43:20.389Z,17.31
2018-11-04T12:45:50.689Z,17.25
2018-11-04T12:48:20.137Z,17.39
2018-11-04T12:50:49.401Z,17.51
2018-11-04T12:53:18.991Z,17.52
2018-11-04T12:55:48.379Z,17.71
2018-11-04T12:58:17.941Z,17.94
2018-11-04T13:00:47.404Z,18.10
2018-11-04T13:03:16.948Z,18.30
2018-11-04T13:05:46.300Z,18.44
2018-11-04T13:08:16.215Z,18.47
2018-11-04T13:10:45.650Z,18.50
2018-11-04T13:13:15.130Z,18.54
2018-11-04T13:15:44.549Z,18.48
2018-11-04T13:18:14.030Z,18.50
2018-11-04T13:20:43.521Z,18.55
2018-11-04T13:23:13.020Z,18.60
2018-11-04T13:25:42.355Z,18.64
2018-11-04T13:28:11.881Z,18.62
2018-11-04T13:30:41.280Z,18.45
2018-11-04T13:33:10.921Z,18.28
2018-11-04T13:35:40.342Z,18.15
2018-11-04T13:38:09.888Z,18.03
2018-11-04T13:40:39.303Z,17.89
2018-11-04T13:43:10.848Z,17.77
2018-11-04T13:45:40.345Z,17.68
2018-11-04T13:48:09.823Z,17.63
2018-11-04T13:50:40.162Z,17.52
2018-11-04T13:53:09.726Z,17.28
2018-11-04T13:55:39.141Z,17.15
2018-11-04T13:58:08.601Z,17.03
2018-11-04T14:00:37.943Z,17.04
2018-11-04T14:03:07.378Z,17.04
2018-11-04T14:05:36.801Z,16.95
2018-11-04T14:08:06.386Z,16.92
2018-11-04T14:10:35.788Z,16.92
2018-11-04T14:13:05.584Z,16.92
2018-11-04T14:15:34.981Z,16.91
2018-11-04T14:18:04.684Z,16.92
2018-11-04T14:20:44.473Z,16.89
2018-11-04T14:23:15.973Z,16.90
2018-11-04T14:25:45.453Z,16.88
2018-11-04T14:28:15.123Z,16.78
2018-11-04T14:30:44.653Z,16.69
2018-11-04T14:33:14.583Z,16.67
2018-11-04T14:35:44.278Z,16.62
2018-11-04T14:38:13.868Z,16.53
2018-11-04T14:40:43.634Z,16.53
2018-11-04T14:43:13.225Z,16.39
2018-11-04T14:45:42.962Z,16.27
2018-11-04T14:48:14.391Z,16.17
2018-11-04T14:50:43.913Z,16.07
2018-11-04T14:53:14.449Z,16.01
2018-11-04T14:55:44.102Z,15.98
2018-11-04T14:58:15.130Z,15.92
2018-11-04T15:00:44.742Z,15.90
2018-11-04T15:03:15.073Z,15.83
2018-11-04T15:05:44.894Z,15.80
2018-11-04T15:08:14.811Z,15.71
2018-11-04T15:10:44.366Z,15.66
2018-11-04T15:13:13.867Z,15.58
2018-11-04T15:15:44.705Z,15.53
2018-11-04T15:18:14.267Z,15.49
2018-11-04T15:20:43.813Z,15.41
2018-11-04T15:23:13.582Z,15.32
2018-11-04T15:25:46.673Z,15.20
2018-11-04T15:28:16.442Z,15.07
2018-11-04T15:30:46.200Z,14.95
2018-11-04T15:33:15.941Z,14.83
2018-11-04T15:35:46.339Z,14.74
2018-11-04T15:38:16.125Z,14.63
2018-11-04T15:40:46.083Z,14.54
2018-11-04T15:43:15.628Z,14.44
2018-11-04T15:45:46.673Z,14.31
2018-11-04T15:48:16.420Z,14.18
2018-11-04T15:50:46.253Z,14.07
2018-11-04T15:53:16.031Z,13.90
2018-11-04T15:55:45.872Z,13.75
2018-11-04T15:58:15.460Z,13.60
2018-11-04T16:00:45.117Z,13.47
2018-11-04T16:03:15.001Z,13.39
2018-11-04T16:05:44.772Z,13.21
2018-11-04T16:08:14.371Z,13.10
2018-11-04T16:10:47.944Z,13.01
2018-11-04T16:13:17.562Z,12.91
2018-11-04T16:15:47.289Z,12.88
2018-11-04T16:18:17.172Z,12.76
2018-11-04T16:20:46.922Z,12.72
2018-11-04T16:23:16.896Z,12.73
2018-11-04T16:25:47.131Z,12.70
2018-11-04T16:28:16.896Z,12.59
2018-11-04T16:30:46.517Z,12.54
2018-11-04T16:33:16.342Z,12.53
2018-11-04T16:35:47.208Z,12.54
2018-11-04T16:38:16.763Z,12.51
2018-11-04T16:40:46.538Z,12.43
2018-11-04T16:43:16.653Z,12.40
2018-11-04T16:45:47.027Z,12.42
2018-11-04T16:48:16.508Z,12.43
2018-11-04T16:50:46.199Z,12.45
2018-11-04T16:53:15.965Z,12.48
2018-11-04T16:55:45.683Z,12.52
2018-11-04T16:58:15.482Z,12.56
2018-11-04T17:00:45.382Z,12.61
2018-11-04T17:03:15.217Z,12.67
2018-11-04T17:05:44.951Z,12.71
2018-11-04T17:08:14.528Z,12.73
2018-11-04T17:10:44.941Z,12.76
2018-11-04T17:13:14.504Z,12.76
2018-11-04T17:15:44.229Z,12.76
2018-11-04T17:18:14.906Z,12.80
2018-11-04T17:20:48.286Z,12.81
2018-11-04T17:23:17.892Z,12.80
2018-11-04T17:25:47.481Z,12.81
2018-11-04T17:28:17.282Z,12.81
2018-11-04T17:30:47.488Z,12.80
2018-11-04T17:33:17.203Z,12.77
2018-11-04T17:35:47.027Z,12.73
2018-11-04T17:38:17.007Z,12.67
2018-11-04T17:40:46.879Z,12.61
2018-11-04T17:43:16.611Z,12.55
2018-11-04T17:45:46.359Z,12.52
2018-11-04T17:48:16.224Z,12.47
2018-11-04T17:50:46.150Z,12.42
2018-11-04T17:53:15.806Z,12.38
2018-11-04T17:55:45.758Z,12.34
2018-11-04T17:58:15.475Z,12.30
2018-11-04T18:00:45.305Z,12.28
2018-11-04T18:03:14.935Z,12.25
2018-11-04T18:05:44.753Z,12.25
2018-11-04T18:08:14.563Z,12.24
2018-11-04T18:10:44.386Z,12.23
2018-11-04T18:13:14.357Z,12.22
2018-11-04T18:15:44.130Z,12.22
2018-11-04T18:18:14.002Z,12.24
2018-11-04T18:20:43.918Z,12.28
2018-11-04T18:23:13.734Z,12.29
2018-11-04T18:25:43.501Z,12.34
2018-11-04T18:28:13.310Z,12.39
2018-11-04T18:30:44.296Z,12.45
2018-11-04T18:33:13.974Z,12.49
2018-11-04T18:35:44.897Z,12.53
2018-11-04T18:38:14.872Z,12.55
2018-11-04T18:40:45.037Z,12.58
2018-11-04T18:43:14.692Z,12.59
2018-11-04T18:45:44.600Z,12.63
2018-11-04T18:48:14.371Z,12.67
2018-11-04T18:50:46.133Z,12.69
2018-11-04T18:53:16.305Z,12.70
2018-11-04T18:55:46.335Z,12.72
2018-11-04T18:58:15.958Z,12.74
2018-11-04T19:00:45.957Z,12.76
2018-11-04T19:03:16.655Z,12.77
2018-11-04T19:05:46.371Z,12.78
2018-11-04T19:08:16.158Z,12.79
2018-11-04T19:10:46.562Z,12.81
2018-11-04T19:13:16.527Z,12.84
2018-11-04T19:15:46.976Z,12.87
2018-11-04T19:18:16.746Z,12.87
2018-11-04T19:20:46.539Z,12.87
2018-11-04T19:23:16.644Z,12.88
2018-11-04T19:25:46.417Z,12.87
2018-11-04T19:28:16.839Z,12.87
2018-11-04T19:30:46.700Z,12.86
2018-11-04T19:33:16.624Z,12.87
2018-11-04T19:35:46.827Z,12.87
2018-11-04T19:38:16.655Z,12.88
2018-11-04T19:40:46.586Z,12.87
2018-11-04T19:43:17.272Z,12.91
2018-11-04T19:45:47.143Z,12.91
2018-11-04T19:48:17.160Z,12.91
2018-11-04T19:50:46.939Z,12.93
2018-11-04T19:53:18.732Z,12.93
2018-11-04T19:55:50.512Z,12.97
2018-11-04T19:58:20.531Z,12.95
2018-11-04T20:00:50.251Z,12.97
2018-11-04T20:03:22.112Z,12.97
2018-11-04T20:06:02.456Z,12.96
2018-11-04T20:08:32.172Z,12.94
2018-11-04T20:11:01.852Z,12.93
2018-11-04T20:13:38.478Z,12.91
2018-11-04T20:16:08.135Z,12.89
2018-11-04T20:18:43.711Z,12.85
2018-11-04T20:21:23.271Z,12.81
2018-11-04T20:23:53.871Z,12.75
2018-11-04T20:26:24.611Z,12.67
2018-11-04T20:28:55.292Z,12.59
2018-11-04T20:31:29.838Z,12.52
2018-11-04T20:33:59.653Z,12.48
2018-11-04T20:36:29.454Z,12.45
2018-11-04T20:39:04.013Z,12.41
2018-11-04T20:41:35.955Z,12.37
2018-11-04T20:44:06.502Z,12.33
2018-11-04T20:46:40.898Z,12.32
2018-11-04T20:49:18.699Z,12.26
2018-11-04T20:51:57.497Z,12.17
2018-11-04T20:54:28.052Z,12.12
2018-11-04T20:57:06.173Z,12.10
2018-11-04T20:59:35.681Z,12.11
2018-11-04T21:02:09.205Z,12.09
2018-11-04T21:04:38.980Z,12.12
2018-11-04T21:07:08.869Z,12.11
2018-11-04T21:09:39.698Z,12.11
2018-11-04T21:12:09.513Z,12.14
2018-11-04T21:14:44.632Z,12.18
2018-11-04T21:17:21.332Z,12.23
2018-11-04T21:25:37.494Z,12.36
2018-11-04T21:28:18.190Z,12.41
2018-11-04T21:30:51.352Z,12.45
2018-11-04T21:33:21.910Z,12.47
2018-11-04T21:36:00.818Z,12.49
2018-11-04T21:38:30.822Z,12.51
2018-11-04T21:41:08.430Z,12.53
2018-11-04T21:43:50.054Z,12.52
2018-11-04T21:46:19.946Z,12.52
2018-11-04T21:48:57.071Z,12.54
2018-11-04T21:51:32.606Z,12.57
2018-11-04T21:54:02.333Z,12.57
2018-11-04T21:56:39.451Z,12.57
2018-11-04T21:59:26.702Z,12.57
2018-11-04T22:02:02.838Z,12.53
2018-11-04T22:04:38.722Z,12.52
2018-11-04T22:07:21.546Z,12.49
2018-11-04T22:09:52.057Z,12.49
2018-11-04T22:12:23.796Z,12.50
2018-11-04T22:17:57.919Z,12.52
2018-11-04T22:20:32.723Z,12.51
2018-11-04T22:23:06.298Z,12.47
2018-11-04T22:25:44.012Z,12.39
2018-11-04T22:31:06.646Z,12.21
2018-11-04T22:33:53.550Z,12.12
2018-11-04T22:36:31.185Z,12.01
2018-11-04T22:39:06.305Z,11.92
2018-11-04T22:47:33.240Z,11.84
2018-11-04T22:50:04.888Z,11.79
2018-11-04T22:52:34.718Z,11.74
2018-11-04T22:55:07.920Z,11.73
2018-11-04T22:57:39.623Z,11.70
2018-11-04T23:00:16.785Z,11.67
2018-11-04T23:05:51.313Z,11.60
2018-11-04T23:08:26.987Z,11.55
2018-11-04T23:13:49.542Z,11.58
2018-11-04T23:16:36.479Z,11.61
2018-11-04T23:19:12.404Z,11.58
2018-11-04T23:21:48.276Z,11.54
2018-11-04T23:24:27.299Z,11.48
2018-11-04T23:27:04.036Z,11.38
2018-11-04T23:29:33.861Z,11.31
2018-11-04T23:32:08.102Z,11.25
2018-11-04T23:34:37.762Z,11.08
2018-11-04T23:37:23.521Z,10.94
2018-11-04T23:39:56.885Z,10.87
2018-11-04T23:42:27.795Z,10.86
2018-11-04T23:45:12.015Z,10.90
2018-11-04T23:47:59.143Z,10.96
2018-11-04T23:56:21.244Z,11.02
